Дата Пункты Температура Давл., мм. Влажн., % Ветер Погодные явления
Воздуха Воды Направл. Скорость
13.07.18 03:00 Одесса 29.0 26.0 754 53 Ю-З 2 15 ЧАСОВ
13.07.18 12:00 Одесса 31.0 25.0 755 43 С-В 3 12 ЧАСОВ
13.07.18 09:00 Одесса 28.0 25.0 755 55 С-З 1 09 ЧАСОВ
13.07.18 06:00 Одесса 22.0 24.0 755 76 С 0 06 ЧАСОВ
13.07.18 03:00 Одесса 23.0 24.0 755 66 С 0 03 ЧАСА
12.07.18 09:00 Одесса 27.0 25.0 755 49 С-З 1 21 ЧАС
12.07.18 06:00 Одесса 29.0 24.0 755 55 Ю 2 18 ЧАСОВ
12.07.18 03:00 Одесса 29.0 24.0 755 58 Ю 3 15 ЧАСОВ
12.07.18 12:00 Одесса 28.0 24.0 756 59 В 1 12 ЧАСОВ
12.07.18 09:00 Одесса 26.0 24.0 756 66 С 1 09 ЧАСОВ
12.07.18 06:00 Одесса 21.0 23.0 755 81 С-З 3 06 ЧАСОВ
12.07.18 03:00 Одесса 23.0 23.0 755 73 С-З 1 03 ЧАСА
11.07.18 09:00 Одесса 26.0 24.0 755 60 С 0 21 ЧАС
11.07.18 06:00 Одесса 27.0 23.0 754 62 Ю 2 18 ЧАСОВ
11.07.18 03:00 Одесса 27.0 23.0 754 65 Ю 3 15 ЧАСОВ
11.07.18 12:00 Одесса 27.0 23.0 755 63 С 3 12 ЧАСОВ
11.07.18 09:00 Одесса 24.0 23.0 755 70 С 1 09 ЧАСОВ
11.07.18 06:00 Одесса 19.0 23.0 754 86 С-З 2 06 ЧАСОВ
11.07.18 03:00 Одесса 20.0 23.0 754 85 С-З 1 03 ЧАСА
10.07.18 09:00 Одесса 25.0 23.0 754 63 С-З 1 21 ЧАС
Количество строк
1 2 3 4 5 6 7 8 9 10
Page 2 of 382